^^
Datos históricos de la estación: Murcia-Puente Tocinos
Diario Informe para Octubre 23, 2021 Unidades:  Métrico    Ingés   Ambas
Diario Semanal Mensual Anual
  Máxima: Mínima: Promedio:
Temperatura: 22.1 °C 14.6 °C 17.9 °C
Punto de rocio: 14.8 °C 12 °C 13.2 °C
Humedad: 87% 54.1% 75%
Velocidad viento: 12.2km/h 0km/h 6.5km/h
Racha viento: 24.1km/h - -
Viento- - SSE
Presión: 1021.8 hPa 1018.3 hPa -
Precipitación: 0.0 mm    
 
 
Tabla de datos para Octubre 23, 2021
Hora Temperatura Punto de rocio Presión Viento Velocidad viento Racha viento Humedad Intensidad lluvia(por hora) Nubes
00:04 16.1 °C 13.8 °C 1019.0 hPa SSO 6.9 km/h 9.3 km/h 86% 0.0 mm
00:09 16.1 °C 13.8 °C 1019.1 hPa OSO 6.3 km/h 11.1 km/h 86% 0.0 mm
00:14 16.1 °C 13.8 °C 1019.1 hPa SSO 5 km/h 7.4 km/h 86% 0.0 mm
00:19 16.2 °C 13.8 °C 1019.1 hPa SSO 4.9 km/h 9.5 km/h 86% 0.0 mm
00:24 16.2 °C 13.8 °C 1019.1 hPa SSO 4.7 km/h 9.5 km/h 86% 0.0 mm
00:29 16.2 °C 13.8 °C 1019.0 hPa SSO 5.3 km/h 9.3 km/h 86% 0.0 mm
00:34 16.2 °C 13.8 °C 1019.0 hPa Sur 6.4 km/h 10 km/h 86% 0.0 mm
00:39 16.1 °C 13.8 °C 1019.0 hPa SSO 6.4 km/h 10.3 km/h 86% 0.0 mm
00:44 16.1 °C 13.8 °C 1019.0 hPa SSO 6.4 km/h 13 km/h 86% 0.0 mm
00:49 16.1 °C 13.8 °C 1019.0 hPa SSO 6.8 km/h 10 km/h 86% 0.0 mm
00:54 16.1 °C 13.8 °C 1019.0 hPa SO 7.6 km/h 9.5 km/h 86% 0.0 mm
00:59 16.1 °C 13.8 °C 1019.0 hPa OSO 6.9 km/h 8.4 km/h 86% 0.0 mm
01:04 16.1 °C 13.6 °C 1019.0 hPa SO 5.8 km/h 8.4 km/h 85.2% 0.0 mm
01:09 16.1 °C 13.6 °C 1019.1 hPa SO 5.5 km/h 7.6 km/h 85% 0.0 mm
01:14 16.1 °C 13.6 °C 1019.1 hPa OSO 5 km/h 9.3 km/h 85% 0.0 mm
01:19 16.1 °C 13.6 °C 1019.1 hPa OSO 4.9 km/h 7.6 km/h 85% 0.0 mm
01:24 16.1 °C 13.6 °C 1019.1 hPa OSO 4.7 km/h 7.6 km/h 85% 0.0 mm
01:29 16.1 °C 13.5 °C 1019.1 hPa SO 4.8 km/h 9.5 km/h 85% 0.0 mm
01:34 16 °C 13.5 °C 1019.1 hPa SO 5 km/h 7.6 km/h 85% 0.0 mm
01:39 16 °C 13.5 °C 1019.1 hPa SO 5 km/h 9.5 km/h 85% 0.0 mm
01:44 16 °C 13.5 °C 1018.9 hPa SSO 5 km/h 7.6 km/h 85% 0.0 mm
01:49 16 °C 13.6 °C 1018.9 hPa SO 5 km/h 7.6 km/h 85.5% 0.0 mm
01:54 16 °C 13.6 °C 1018.9 hPa Sur 5 km/h 9.3 km/h 85.6% 0.0 mm
01:59 15.9 °C 13.4 °C 1018.9 hPa Sur 5.3 km/h 9.5 km/h 85% 0.0 mm
02:04 15.9 °C 13.5 °C 1018.9 hPa SSO 5.8 km/h 11.1 km/h 85.7% 0.0 mm
02:09 15.8 °C 13.5 °C 1018.9 hPa SSO 6.2 km/h 11.9 km/h 86% 0.0 mm
02:14 15.8 °C 13.4 °C 1018.8 hPa SSO 6.9 km/h 11.1 km/h 86% 0.0 mm
02:19 15.8 °C 13.4 °C 1018.8 hPa SSO 7.4 km/h 11.1 km/h 86% 0.0 mm
02:24 15.8 °C 13.5 °C 1018.9 hPa SSO 8.4 km/h 12.2 km/h 86.2% 0.0 mm
02:29 15.7 °C 13.6 °C 1018.9 hPa SSO 8.1 km/h 13 km/h 87% 0.0 mm
02:34 15.7 °C 13.6 °C 1018.9 hPa SO 7.6 km/h 11.1 km/h 87% 0.0 mm
02:39 15.7 °C 13.6 °C 1018.9 hPa SSO 7.6 km/h 14 km/h 87% 0.0 mm
02:44 15.7 °C 13.5 °C 1018.8 hPa SSO 7.6 km/h 15.6 km/h 87% 0.0 mm
02:49 15.6 °C 13.4 °C 1018.8 hPa SO 8.2 km/h 14.8 km/h 86.3% 0.0 mm
02:54 15.6 °C 13.3 °C 1018.9 hPa SO 9.5 km/h 12.2 km/h 86% 0.0 mm
02:59 15.6 °C 13.3 °C 1018.9 hPa SO 9 km/h 13.7 km/h 86% 0.0 mm
03:04 15.6 °C 13.3 °C 1018.9 hPa SO 8.4 km/h 14.8 km/h 86% 0.0 mm
03:09 15.6 °C 13.2 °C 1018.9 hPa SO 8.8 km/h 13 km/h 86% 0.0 mm
03:14 15.5 °C 13.1 °C 1018.7 hPa SO 9.5 km/h 11.1 km/h 86% 0.0 mm
03:19 15.4 °C 13.1 °C 1018.7 hPa SO 8.4 km/h 11.1 km/h 86% 0.0 mm
03:24 15.4 °C 13.1 °C 1018.7 hPa SSO 6.4 km/h 11.1 km/h 86% 0.0 mm
03:29 15.4 °C 13.1 °C 1018.7 hPa Sur 6.4 km/h 11.1 km/h 86% 0.0 mm
03:34 15.4 °C 13.1 °C 1018.7 hPa Sur 6.4 km/h 11.1 km/h 86% 0.0 mm
03:39 15.4 °C 13 °C 1018.8 hPa Sur 6.4 km/h 9.5 km/h 86% 0.0 mm
03:44 15.3 °C 12.9 °C 1018.8 hPa SSE 6.4 km/h 8.4 km/h 86% 0.0 mm
03:49 15.3 °C 12.9 °C 1018.8 hPa SSE 6.4 km/h 8.4 km/h 86% 0.0 mm
03:54 15.2 °C 12.9 °C 1018.8 hPa SSO 6.4 km/h 9.3 km/h 86% 0.0 mm
03:59 15.2 °C 12.9 °C 1018.6 hPa SSO 6.4 km/h 10 km/h 86% 0.0 mm
04:04 15.2 °C 12.9 °C 1018.6 hPa Sur 6.4 km/h 8.4 km/h 86% 0.0 mm
04:09 15.2 °C 12.9 °C 1018.6 hPa Sur 6.2 km/h 7.6 km/h 86% 0.0 mm
04:14 15.3 °C 12.9 °C 1018.6 hPa SSO 5.8 km/h 9.3 km/h 86% 0.0 mm
04:19 15.2 °C 12.9 °C 1018.6 hPa SSO 5.8 km/h 10 km/h 86% 0.0 mm
04:24 15.2 °C 12.9 °C 1018.6 hPa SSO 5.8 km/h 11.9 km/h 86% 0.0 mm
04:29 15.2 °C 12.9 °C 1018.4 hPa SSO 6.2 km/h 11.1 km/h 86% 0.0 mm
04:34 15.2 °C 12.9 °C 1018.4 hPa SSO 6.9 km/h 9.5 km/h 86% 0.0 mm
04:39 15.2 °C 12.9 °C 1018.4 hPa SSO 6.9 km/h 9.5 km/h 86% 0.0 mm
04:44 15.2 °C 12.7 °C 1018.4 hPa SSO 6.9 km/h 7.4 km/h 85.1% 0.0 mm
04:49 15.2 °C 12.7 °C 1018.4 hPa Sur 6.5 km/h 11.9 km/h 85% 0.0 mm
04:54 15.1 °C 12.6 °C 1018.4 hPa SSO 5.8 km/h 13 km/h 85% 0.0 mm
04:59 15.1 °C 12.6 °C 1018.3 hPa SSO 6.8 km/h 13.7 km/h 85% 0.0 mm
05:04 15.1 °C 12.6 °C 1018.3 hPa SSO 8.7 km/h 13 km/h 85% 0.0 mm
05:09 15.1 °C 12.6 °C 1018.3 hPa SSO 8.3 km/h 11.1 km/h 85% 0.0 mm
05:14 15.1 °C 12.6 °C 1018.3 hPa Sur 7.6 km/h 11.1 km/h 85% 0.0 mm
05:19 15.1 °C 12.6 °C 1018.3 hPa Sur 7.6 km/h 11.1 km/h 85% 0.0 mm
05:24 15 °C 12.5 °C 1018.4 hPa Sur 7.6 km/h 11.9 km/h 85% 0.0 mm
05:29 15 °C 12.5 °C 1018.4 hPa SSO 7.8 km/h 11.9 km/h 85% 0.0 mm
05:34 15 °C 12.5 °C 1018.4 hPa SSO 8.4 km/h 13.7 km/h 85% 0.0 mm
05:39 15 °C 12.5 °C 1018.4 hPa Sur 8.4 km/h 11.1 km/h 85% 0.0 mm
05:44 15 °C 12.5 °C 1018.4 hPa SSO 8.4 km/h 11.9 km/h 85% 0.0 mm
05:49 15 °C 12.5 °C 1018.4 hPa SSO 8.1 km/h 11.1 km/h 85% 0.0 mm
05:54 15 °C 12.5 °C 1018.4 hPa SSO 7.6 km/h 10 km/h 85% 0.0 mm
05:59 14.9 °C 12.4 °C 1018.3 hPa SSO 7.3 km/h 11.9 km/h 85% 0.0 mm
06:04 15 °C 12.5 °C 1018.3 hPa SSO 6.9 km/h 13.7 km/h 85% 0.0 mm
06:09 15 °C 12.5 °C 1018.4 hPa SSO 7.6 km/h 11.1 km/h 85% 0.0 mm
06:14 15 °C 12.5 °C 1018.4 hPa SSO 8.7 km/h 11.1 km/h 85% 0.0 mm
06:19 15 °C 12.3 °C 1018.4 hPa Sur 8.1 km/h 11.9 km/h 84.1% 0.0 mm
06:24 14.9 °C 12.2 °C 1018.5 hPa SSO 6.9 km/h 13 km/h 84.2% 0.0 mm
06:29 14.8 °C 12.3 °C 1018.5 hPa SSO 7.8 km/h 14 km/h 85% 0.0 mm
06:34 14.8 °C 12.3 °C 1018.5 hPa SSO 9.5 km/h 14.8 km/h 85% 0.0 mm
06:39 14.8 °C 12.3 °C 1018.6 hPa SSO 9.5 km/h 13.7 km/h 85% 0.0 mm
06:44 14.8 °C 12.3 °C 1018.6 hPa SSO 9.5 km/h 13 km/h 84.9% 0.0 mm
06:49 14.8 °C 12.2 °C 1018.6 hPa SSO 9.2 km/h 16.7 km/h 84.5% 0.0 mm
06:54 14.8 °C 12.1 °C 1018.9 hPa SSO 8.7 km/h 13.7 km/h 84% 0.0 mm
06:59 14.8 °C 12.1 °C 1018.9 hPa SSO 8.7 km/h 14.8 km/h 84% 0.0 mm
07:04 14.8 °C 12.1 °C 1018.9 hPa SSO 8.7 km/h 14.8 km/h 84% 0.0 mm
07:09 14.8 °C 12.1 °C 1018.9 hPa SO 9 km/h 14.8 km/h 84% 0.0 mm
07:14 14.8 °C 12.1 °C 1018.9 hPa SO 9.5 km/h 9.3 km/h 84% 0.0 mm
07:19 14.8 °C 12.1 °C 1018.9 hPa SO 7.9 km/h 9.3 km/h 84% 0.0 mm
07:24 14.8 °C 12.1 °C 1019.0 hPa SSO 5 km/h 11.9 km/h 84% 0.0 mm
07:29 14.8 °C 12.1 °C 1019.0 hPa SSO 5.7 km/h 13 km/h 84% 0.0 mm
07:34 14.7 °C 12 °C 1019.0 hPa SSO 6.9 km/h 13 km/h 84% 0.0 mm
07:39 14.7 °C 12.2 °C 1019.1 hPa SSO 7.6 km/h 13 km/h 84.8% 0.0 mm
07:44 14.7 °C 12.1 °C 1019.1 hPa SSO 8.7 km/h 13 km/h 84.3% 0.0 mm
07:49 14.7 °C 12 °C 1019.1 hPa Sur 8.3 km/h 12.2 km/h 84% 0.0 mm
07:54 14.7 °C 12 °C 1019.1 hPa Sur 7.6 km/h 13 km/h 84% 0.0 mm
07:59 14.7 °C 12.1 °C 1019.1 hPa Sur 8 km/h 13.7 km/h 84.4% 0.0 mm
08:04 14.6 °C 12.1 °C 1019.1 hPa Sur 8.7 km/h 13 km/h 85% 0.0 mm
08:09 14.6 °C 12.1 °C 1019.1 hPa Sur 8.6 km/h 13 km/h 85% 0.0 mm
08:14 14.7 °C 12.2 °C 1019.1 hPa SSO 8.4 km/h 11.9 km/h 85% 0.0 mm
08:19 14.7 °C 12 °C 1019.1 hPa SSO 8.1 km/h 14.8 km/h 84.1% 0.0 mm
08:24 14.7 °C 12 °C 1019.1 hPa SO 7.6 km/h 14.8 km/h 84% 0.0 mm
08:29 14.7 °C 12 °C 1019.1 hPa SSO 7.6 km/h 14.8 km/h 84% 0.0 mm
08:34 14.8 °C 12.1 °C 1019.1 hPa SSO 7.6 km/h 15.6 km/h 84% 0.0 mm
08:39 14.8 °C 12.1 °C 1019.3 hPa SSO 8.3 km/h 13 km/h 84% 0.0 mm
08:44 14.8 °C 12.1 °C 1019.3 hPa SSO 9.5 km/h 13 km/h 83.4% 0.0 mm
08:49 14.9 °C 12.1 °C 1019.3 hPa SSO 9.1 km/h 11.1 km/h 83% 0.0 mm
08:54 14.9 °C 12.1 °C 1019.5 hPa SSO 8.4 km/h 11.1 km/h 83% 0.0 mm
08:59 15 °C 12.1 °C 1019.5 hPa SSO 8.1 km/h 11.9 km/h 83% 0.0 mm
09:04 15.1 °C 12.2 °C 1019.5 hPa SSO 7.6 km/h 11.9 km/h 83% 0.0 mm
09:09 15.1 °C 12.2 °C 1019.7 hPa SSO 7.6 km/h 11.1 km/h 82.8% 0.0 mm
09:14 15.2 °C 12.3 °C 1019.7 hPa SSO 7.6 km/h 11.1 km/h 83% 0.0 mm
09:19 15.2 °C 12.3 °C 1019.7 hPa SSO 7.2 km/h 13 km/h 82.5% 0.0 mm
09:24 15.2 °C 12.2 °C 1019.9 hPa SSO 6.4 km/h 11.1 km/h 82% 0.0 mm
09:29 15.3 °C 12.2 °C 1019.9 hPa SSO 7.1 km/h 13 km/h 82% 0.0 mm
09:34 15.4 °C 12.3 °C 1019.9 hPa SSO 8.4 km/h 11.9 km/h 82% 0.0 mm
09:39 15.6 °C 12.4 °C 1020.1 hPa SSO 8.1 km/h 13 km/h 81.5% 0.0 mm
09:44 15.7 °C 12.4 °C 1020.1 hPa SSO 7.6 km/h 10.3 km/h 81% 0.0 mm
09:49 15.8 °C 12.3 °C 1020.1 hPa SSO 7.3 km/h 11.1 km/h 80.1% 0.0 mm
09:54 15.9 °C 12.4 °C 1020.3 hPa SO 6.9 km/h 9.5 km/h 80% 0.0 mm
09:59 16 °C 12.5 °C 1020.3 hPa SO 6.2 km/h 9.3 km/h 79.6% 0.0 mm
10:04 16.2 °C 12.6 °C 1020.3 hPa SSO 5 km/h 11.1 km/h 78.9% 0.0 mm
10:09 16.3 °C 12.4 °C 1020.3 hPa SO 5.8 km/h 14.8 km/h 77.8% 0.0 mm
10:14 16.4 °C 12.4 °C 1020.2 hPa SO 7.6 km/h 14.8 km/h 77.2% 0.0 mm
10:19 16.6 °C 12.5 °C 1020.2 hPa SO 8.2 km/h 14.8 km/h 76.8% 0.0 mm
10:24 16.7 °C 12.6 °C 1020.2 hPa SO 9.5 km/h 11.9 km/h 76.7% 0.0 mm
10:29 16.8 °C 12.6 °C 1020.2 hPa SSO 8.5 km/h 11.1 km/h 76% 0.0 mm
10:34 17 °C 12.6 °C 1020.2 hPa SSO 6.4 km/h 11.9 km/h 75.5% 0.0 mm
10:39 17.1 °C 12.5 °C 1020.2 hPa SSO 6.8 km/h 13.7 km/h 74.3% 0.0 mm
10:44 17.2 °C 12.6 °C 1020.2 hPa SSO 7.6 km/h 11.1 km/h 74.4% 0.0 mm
10:49 17.3 °C 12.7 °C 1020.2 hPa SSO 7.3 km/h 11.9 km/h 74.3% 0.0 mm
10:54 17.5 °C 12.8 °C 1020.2 hPa Sur 6.9 km/h 13 km/h 74% 0.0 mm
10:59 17.7 °C 12.9 °C 1020.2 hPa SSO 6.9 km/h 11.1 km/h 73.5% 0.0 mm
11:04 17.7 °C 12.8 °C 1020.2 hPa SSO 6.9 km/h 11.1 km/h 73% 0.0 mm
11:09 17.8 °C 13 °C 1020.4 hPa SSO 6.8 km/h 9.3 km/h 73.6% 0.0 mm
11:14 18 °C 13.1 °C 1020.4 hPa OSO 6.4 km/h 10 km/h 73.2% 0.0 mm
11:19 18.2 °C 13.3 °C 1020.4 hPa SO 5.9 km/h 11.1 km/h 72.8% 0.0 mm
11:24 18.3 °C 13.2 °C 1020.5 hPa OSO 5 km/h 13 km/h 72% 0.0 mm
11:29 18.4 °C 13.4 °C 1020.5 hPa SSO 5.3 km/h 10.3 km/h 72.8% 0.0 mm
11:34 18.7 °C 13.5 °C 1020.5 hPa Sur 5.8 km/h 11.1 km/h 71.6% 0.0 mm
11:39 18.8 °C 13.5 °C 1020.6 hPa Sur 6 km/h 10 km/h 71% 0.0 mm
11:44 19.1 °C 13.6 °C 1020.6 hPa Sur 6.4 km/h 13 km/h 70.7% 0.0 mm
11:49 19.2 °C 13.6 °C 1020.6 hPa SSE 6.4 km/h 13 km/h 70.2% 0.0 mm
11:54 19.4 °C 13.7 °C 1020.6 hPa Sur 6.4 km/h 11.1 km/h 70% 0.0 mm
11:59 19.7 °C 13.9 °C 1020.5 hPa Sur 6.2 km/h 9.3 km/h 69.6% 0.0 mm
12:04 19.8 °C 13.8 °C 1020.5 hPa ESE 5.8 km/h 7.6 km/h 68.2% 0.0 mm
12:09 19.9 °C 13.8 °C 1020.7 hPa Este 5.4 km/h 7.6 km/h 67.8% 0.0 mm
12:14 20 °C 13.8 °C 1020.7 hPa ENE 4.7 km/h 7.6 km/h 67.3% 0.0 mm
12:19 20 °C 13.7 °C 1020.7 hPa ESE 4.8 km/h 8.4 km/h 67.2% 0.0 mm
12:24 19.9 °C 13.1 °C 1020.7 hPa SE 5 km/h 7.4 km/h 65.1% 0.0 mm
12:29 20 °C 13.4 °C 1020.6 hPa SSO 4.4 km/h 4.7 km/h 66% 0.0 mm
12:34 20.2 °C 13.4 °C 1020.6 hPa OSO 3.2 km/h 8.7 km/h 65.2% 0.0 mm
12:39 20.2 °C 13 °C 1020.7 hPa North 3.2 km/h 9.3 km/h 63.3% 0.0 mm
12:44 20.3 °C 12.9 °C 1020.7 hPa Este 3.2 km/h 10 km/h 62.6% 0.0 mm
12:49 20.2 °C 12.9 °C 1020.7 hPa NNE 3.8 km/h 11.1 km/h 62.9% 0.0 mm
12:54 20.2 °C 13 °C 1020.7 hPa NE 4.7 km/h 10 km/h 63.1% 0.0 mm
12:59 20.2 °C 13 °C 1020.5 hPa North 5.8 km/h 14.8 km/h 63.1% 0.0 mm
13:04 20.2 °C 12.7 °C 1020.5 hPa NNE 7.6 km/h 13 km/h 62.1% 0.0 mm
13:09 20.2 °C 13 °C 1020.5 hPa NE 7.1 km/h 10 km/h 63.3% 0.0 mm
13:14 20.2 °C 13 °C 1020.4 hPa NE 6.4 km/h 15.6 km/h 63.2% 0.0 mm
13:19 20.2 °C 13.1 °C 1020.4 hPa NNE 7.2 km/h 15.6 km/h 63.6% 0.0 mm
13:24 20.3 °C 13 °C 1020.4 hPa NE 8.7 km/h 14.8 km/h 63.1% 0.0 mm
13:29 20.4 °C 13.1 °C 1020.2 hPa NNE 8.6 km/h 16.7 km/h 63% 0.0 mm
13:34 20.4 °C 13.1 °C 1020.2 hPa North 8.4 km/h 14.8 km/h 62.8% 0.0 mm
13:39 20.4 °C 13 °C 1020.2 hPa NNE 8.5 km/h 16.7 km/h 62.6% 0.0 mm
13:44 20.4 °C 13.1 °C 1020.2 hPa NNE 8.7 km/h 13 km/h 62.9% 0.0 mm
13:49 20.4 °C 12.9 °C 1020.2 hPa North 8.7 km/h 13 km/h 62.3% 0.0 mm
13:54 20.4 °C 13 °C 1020.2 hPa North 8.7 km/h 11.1 km/h 62.4% 0.0 mm
13:59 20.5 °C 12.9 °C 1020.0 hPa NNE 8.6 km/h 14.8 km/h 61.9% 0.0 mm
14:04 20.6 °C 13 °C 1020.0 hPa NNE 8.4 km/h 16.7 km/h 62% 0.0 mm
14:09 20.7 °C 13.1 °C 1020.0 hPa North 8.7 km/h 13.7 km/h 61.8% 0.0 mm
14:14 20.8 °C 13.1 °C 1019.8 hPa North 9.5 km/h 13.7 km/h 61.1% 0.0 mm
14:19 20.8 °C 12.9 °C 1019.8 hPa NNO 8.4 km/h 14.8 km/h 60.6% 0.0 mm
14:24 20.9 °C 13 °C 1019.8 hPa NE 6.4 km/h 13 km/h 60.5% 0.0 mm
14:29 21 °C 13.1 °C 1019.6 hPa ENE 6.6 km/h 14.8 km/h 60.7% 0.0 mm
14:34 21.2 °C 12.9 °C 1019.6 hPa NE 6.9 km/h 22.5 km/h 59.2% 0.0 mm
14:39 21.2 °C 12.7 °C 1019.6 hPa NNE 8 km/h 16.7 km/h 58% 0.0 mm
14:44 21.2 °C 12.5 °C 1019.4 hPa NNE 10 km/h 20.9 km/h 57.4% 0.0 mm
14:49 21.3 °C 12.4 °C 1019.4 hPa NNE 10.4 km/h 20.4 km/h 57% 0.0 mm
14:54 21.3 °C 12.4 °C 1019.4 hPa NNE 11.1 km/h 14.8 km/h 57% 0.0 mm
14:59 21.4 °C 12.5 °C 1019.2 hPa NNE 10 km/h 13.7 km/h 57.1% 0.0 mm
15:04 21.5 °C 12.6 °C 1019.2 hPa NNE 8.4 km/h 14.8 km/h 57% 0.0 mm
15:09 21.6 °C 12.7 °C 1019.2 hPa NE 7.6 km/h 19.8 km/h 57% 0.0 mm
15:14 21.7 °C 12.8 °C 1019.0 hPa NNE 6.4 km/h 20.4 km/h 57.1% 0.0 mm
15:19 21.8 °C 13.1 °C 1019.0 hPa ENE 6.8 km/h 16.7 km/h 57.6% 0.0 mm
15:24 22 °C 13.1 °C 1019.1 hPa ENE 7.6 km/h 16.7 km/h 57.2% 0.0 mm
15:29 22 °C 12.6 °C 1019.1 hPa ESE 7.8 km/h 13 km/h 55.3% 0.0 mm
15:34 22.1 °C 13.1 °C 1019.1 hPa ENE 8.4 km/h 14.8 km/h 56.8% 0.0 mm
15:39 22.1 °C 12.4 °C 1019.1 hPa NE 8.1 km/h 14.8 km/h 54.1% 0.0 mm
15:44 21.9 °C 12.5 °C 1019.1 hPa ENE 7.6 km/h 14.8 km/h 55.2% 0.0 mm
15:49 21.8 °C 12.6 °C 1019.1 hPa NNE 7.8 km/h 14.8 km/h 56.2% 0.0 mm
15:54 21.7 °C 12.8 °C 1019.1 hPa NNE 8.4 km/h 14.8 km/h 56.8% 0.0 mm
15:59 21.8 °C 12.8 °C 1019.0 hPa NE 8.1 km/h 9.5 km/h 56.5% 0.0 mm
16:04 21.9 °C 12.6 °C 1019.0 hPa Este 7.6 km/h 11.9 km/h 55.6% 0.0 mm
16:09 21.9 °C 12.7 °C 1019.0 hPa ENE 7.2 km/h 11.1 km/h 56% 0.0 mm
16:14 21.8 °C 12.7 °C 1019.0 hPa ESE 6.4 km/h 13.7 km/h 56% 0.0 mm
16:19 21.8 °C 12.6 °C 1019.0 hPa ESE 6.6 km/h 13.7 km/h 55.8% 0.0 mm
16:24 21.7 °C 12.6 °C 1019.0 hPa ESE 6.9 km/h 11.1 km/h 56% 0.0 mm
16:29 21.7 °C 12.6 °C 1018.9 hPa ESE 6.9 km/h 9.5 km/h 56% 0.0 mm
16:34 21.7 °C 12.6 °C 1018.9 hPa Este 6.9 km/h 10 km/h 56% 0.0 mm
16:39 21.7 °C 12.6 °C 1018.9 hPa NE 6.5 km/h 10 km/h 56.2% 0.0 mm
16:44 21.6 °C 12.5 °C 1018.9 hPa NE 5.8 km/h 9.3 km/h 56.1% 0.0 mm
16:49 21.6 °C 12.5 °C 1018.9 hPa NNE 5.4 km/h 7.6 km/h 56.2% 0.0 mm
16:54 21.6 °C 12.5 °C 1018.9 hPa North 4.7 km/h 7.4 km/h 56% 0.0 mm
16:59 21.7 °C 12.6 °C 1018.9 hPa ENE 4.4 km/h 9.5 km/h 56.1% 0.0 mm
17:04 21.7 °C 12.5 °C 1018.9 hPa Este 3.9 km/h 7.6 km/h 56% 0.0 mm
17:09 21.7 °C 12.6 °C 1018.9 hPa ENE 4.2 km/h 7.4 km/h 56% 0.0 mm
17:14 21.8 °C 12.6 °C 1018.7 hPa NE 4.7 km/h 9.5 km/h 56% 0.0 mm
17:19 21.8 °C 12.7 °C 1018.7 hPa ENE 5.1 km/h 10 km/h 56% 0.0 mm
17:24 21.8 °C 12.6 °C 1018.7 hPa Este 5.8 km/h 9.3 km/h 56% 0.0 mm
17:29 21.8 °C 12.6 °C 1018.7 hPa ENE 5.8 km/h 8.4 km/h 56% 0.0 mm
17:34 21.9 °C 12.6 °C 1018.7 hPa ENE 5.8 km/h 7.6 km/h 55.6% 0.0 mm
17:39 21.9 °C 12.5 °C 1018.7 hPa ENE 5.8 km/h 13 km/h 55% 0.0 mm
17:44 21.9 °C 12.4 °C 1018.6 hPa Este 5.8 km/h 11.1 km/h 55% 0.0 mm
17:49 21.9 °C 12.5 °C 1018.6 hPa Este 6 km/h 9.3 km/h 55.3% 0.0 mm
17:54 22 °C 12.8 °C 1018.7 hPa ENE 6.4 km/h 9.3 km/h 56% 0.0 mm
17:59 21.9 °C 12.7 °C 1018.7 hPa ESE 6.2 km/h 11.1 km/h 55.8% 0.0 mm
18:04 21.9 °C 12.7 °C 1018.7 hPa ENE 5.8 km/h 11.1 km/h 56% 0.0 mm
18:09 21.9 °C 12.7 °C 1018.7 hPa ENE 5.8 km/h 9.5 km/h 56% 0.0 mm
18:14 21.9 °C 12.8 °C 1018.7 hPa NE 5.8 km/h 11.1 km/h 56.4% 0.0 mm
18:19 21.9 °C 12.8 °C 1018.7 hPa NE 6.2 km/h 14.8 km/h 56.2% 0.0 mm
18:24 21.8 °C 12.7 °C 1018.9 hPa NE 6.9 km/h 11.1 km/h 56.1% 0.0 mm
18:29 21.8 °C 12.7 °C 1018.9 hPa NE 7.2 km/h 10 km/h 56.2% 0.0 mm
18:34 21.8 °C 12.9 °C 1018.9 hPa NE 7.6 km/h 11.9 km/h 57% 0.0 mm
18:39 21.7 °C 13 °C 1018.9 hPa NE 7.8 km/h 13 km/h 57.8% 0.0 mm
18:44 21.6 °C 13.3 °C 1018.9 hPa NE 8.4 km/h 24.1 km/h 59.6% 0.0 mm
18:49 21.2 °C 13.7 °C 1018.9 hPa NE 9.4 km/h 20.9 km/h 62.2% 0.0 mm
18:54 20.9 °C 13.8 °C 1019.2 hPa ENE 11.1 km/h 23.3 km/h 64.1% 0.0 mm
18:59 20.6 °C 13.8 °C 1019.2 hPa NE 11.5 km/h 24.1 km/h 65.3% 0.0 mm
19:04 20.3 °C 13.9 °C 1019.2 hPa NE 12.2 km/h 18.5 km/h 66.3% 0.0 mm
19:09 20.2 °C 13.9 °C 1019.5 hPa NE 11.4 km/h 20.4 km/h 67.1% 0.0 mm
19:14 20 °C 13.9 °C 1019.5 hPa NE 10 km/h 16.7 km/h 68% 0.0 mm
19:19 19.8 °C 14 °C 1019.5 hPa NE 9.8 km/h 16.4 km/h 68.9% 0.0 mm
19:24 19.7 °C 13.9 °C 1019.6 hPa NE 9.5 km/h 16.7 km/h 69.3% 0.0 mm
19:29 19.7 °C 14 °C 1019.6 hPa NE 9.2 km/h 16.7 km/h 70% 0.0 mm
19:34 19.6 °C 14.2 °C 1019.6 hPa ENE 8.7 km/h 11.1 km/h 70.9% 0.0 mm
19:39 19.4 °C 14.2 °C 1019.8 hPa ENE 8.1 km/h 11.9 km/h 71.6% 0.0 mm
19:44 19.4 °C 14.2 °C 1019.8 hPa ENE 6.9 km/h 11.9 km/h 72.1% 0.0 mm
19:49 19.3 °C 14.3 °C 1019.8 hPa ENE 6.9 km/h 11.1 km/h 73% 0.0 mm
19:54 19.2 °C 14.4 °C 1020.0 hPa ENE 6.9 km/h 9.3 km/h 73.7% 0.0 mm
19:59 19.2 °C 14.4 °C 1020.0 hPa NE 6.1 km/h 7.4 km/h 74% 0.0 mm
20:04 19.1 °C 14.5 °C 1020.0 hPa ENE 4.7 km/h 5.6 km/h 74.5% 0.0 mm
20:09 19.1 °C 14.6 °C 1020.2 hPa NE 4.4 km/h 7.4 km/h 75% 0.0 mm
20:14 19 °C 14.6 °C 1020.2 hPa NE 3.9 km/h 9.3 km/h 75.5% 0.0 mm
20:19 18.9 °C 14.6 °C 1020.2 hPa NNE 4.3 km/h 7.4 km/h 76% 0.0 mm
20:24 18.9 °C 14.6 °C 1020.3 hPa NNE 5 km/h 7.4 km/h 76% 0.0 mm
20:29 18.9 °C 14.6 °C 1020.3 hPa NNE 4.9 km/h 7.6 km/h 76.1% 0.0 mm
20:34 18.8 °C 14.7 °C 1020.3 hPa NE 4.7 km/h 9.5 km/h 77% 0.0 mm
20:39 18.7 °C 14.6 °C 1020.4 hPa NE 5.1 km/h 7.4 km/h 77% 0.0 mm
20:44 18.6 °C 14.7 °C 1020.4 hPa NNE 5.8 km/h 7.4 km/h 78% 0.0 mm
20:49 18.5 °C 14.6 °C 1020.4 hPa NNE 5.1 km/h 7.4 km/h 78.2% 0.0 mm
20:54 18.5 °C 14.8 °C 1020.6 hPa NNE 3.9 km/h 5.6 km/h 79% 0.0 mm
20:59 18.4 °C 14.7 °C 1020.6 hPa NNE 3.6 km/h 5.6 km/h 79% 0.0 mm
21:04 18.4 °C 14.7 °C 1020.6 hPa NNE 3.2 km/h 4.7 km/h 79% 0.0 mm
21:09 18.4 °C 14.7 °C 1020.7 hPa NNE 3.1 km/h 4.7 km/h 79% 0.0 mm
21:14 18.3 °C 14.8 °C 1020.7 hPa NNE 2.9 km/h 5 km/h 80% 0.0 mm
21:19 18.3 °C 14.8 °C 1020.7 hPa NNO 3 km/h 5.8 km/h 80% 0.0 mm
21:24 18.2 °C 14.7 °C 1020.8 hPa NNO 3.2 km/h 5.6 km/h 80% 0.0 mm
21:29 18.2 °C 14.6 °C 1020.8 hPa NNO 3.2 km/h 5.8 km/h 80% 0.0 mm
21:34 18.1 °C 14.8 °C 1020.8 hPa NNO 3.2 km/h 5.6 km/h 80.9% 0.0 mm
21:39 18.1 °C 14.7 °C 1021.0 hPa NNO 3.2 km/h 5.8 km/h 81% 0.0 mm
21:44 18 °C 14.7 °C 1021.0 hPa NNO 3.2 km/h 5.6 km/h 81% 0.0 mm
21:49 17.9 °C 14.6 °C 1021.0 hPa NNO 3.1 km/h 4.7 km/h 81.1% 0.0 mm
21:54 17.9 °C 14.8 °C 1021.0 hPa NNO 2.9 km/h 5.6 km/h 82% 0.0 mm
21:59 17.9 °C 14.8 °C 1021.0 hPa NNO 2.6 km/h 5.8 km/h 82% 0.0 mm
22:04 17.9 °C 14.8 °C 1021.0 hPa NO 2.3 km/h 7.4 km/h 82% 0.0 mm
22:09 17.8 °C 14.7 °C 1021.2 hPa NO 2.8 km/h 5.8 km/h 82% 0.0 mm
22:14 17.8 °C 14.7 °C 1021.2 hPa NO 3.9 km/h 5.6 km/h 82% 0.0 mm
22:19 17.8 °C 14.7 °C 1021.2 hPa NO 3.6 km/h 7.4 km/h 82% 0.0 mm
22:24 17.8 °C 14.7 °C 1021.3 hPa NNO 3.2 km/h 7.4 km/h 82.5% 0.0 mm
22:29 17.7 °C 14.8 °C 1021.3 hPa North 3.5 km/h 5.6 km/h 83% 0.0 mm
22:34 17.6 °C 14.7 °C 1021.3 hPa North 3.9 km/h 5.8 km/h 83% 0.0 mm
22:39 17.5 °C 14.6 °C 1021.4 hPa North 3.5 km/h 5.6 km/h 83% 0.0 mm
22:44 17.4 °C 14.6 °C 1021.4 hPa North 2.9 km/h   83.6% 0.0 mm
22:49 17.4 °C 14.7 °C 1021.4 hPa North 1.9 km/h 3.7 km/h 84% 0.0 mm
22:54 17.3 °C 14.6 °C 1021.6 hPa Calm   2.3 km/h 84% 0.0 mm
22:59 17.3 °C 14.7 °C 1021.6 hPa Calm   4.7 km/h 84.6% 0.0 mm
23:04 17.3 °C 14.8 °C 1021.6 hPa Calm   5.8 km/h 85% 0.0 mm
23:09 17.3 °C 14.8 °C 1021.7 hPa SE 1.1 km/h 7.4 km/h 85% 0.0 mm
23:14 17.3 °C 14.8 °C 1021.7 hPa SE 3.2 km/h 6.4 km/h 85% 0.0 mm
23:19 17.3 °C 14.8 °C 1021.7 hPa ESE 3.2 km/h 7.4 km/h 85% 0.0 mm
23:24 17.2 °C 14.6 °C 1021.8 hPa SSE 3.2 km/h 9.5 km/h 84.6% 0.0 mm
23:29 17.2 °C 14.4 °C 1021.8 hPa Sur 4.2 km/h 9.3 km/h 84% 0.0 mm
23:34 17.1 °C 14.5 °C 1021.8 hPa SSE 5.8 km/h 7.4 km/h 84.7% 0.0 mm
23:39 17.2 °C 14.7 °C 1021.8 hPa SE 5.4 km/h 7.4 km/h 85% 0.0 mm
23:44 17.2 °C 14.7 °C 1021.7 hPa SE 4.7 km/h 4.7 km/h 85% 0.0 mm
23:49 17.2 °C 14.7 °C 1021.7 hPa SE 4.2 km/h 5.8 km/h 85% 0.0 mm
23:54 17.3 °C 14.7 °C 1021.8 hPa Sur 3.2 km/h 5.8 km/h 85% 0.0 mm
23:59 17.3 °C 14.8 °C 1021.8 hPa Sur 3.1 km/h 3.7 km/h 85% 0.0 mm
Murcia-Puente Tocinos, Espa?a
Compliments of Weather Underground - 3 mb

La estación de MeteoMurcia.com, publica sus datos en los siguientes proyectos:

Weather Underground PWS IMURCIAP2 Meteoclimatic www.awekas.at

W3Counter
Web Analytics